sensor_id;sensor_type;location;lat;lon;timestamp;temperature;humidity
32173;DHT22;18679;45.190;5.722;2023-02-12T00:01:11;7.30;48.30
32173;DHT22;18679;45.190;5.722;2023-02-12T00:04:13;7.30;48.40
32173;DHT22;18679;45.190;5.722;2023-02-12T00:07:14;7.30;48.40
32173;DHT22;18679;45.190;5.722;2023-02-12T00:10:15;7.20;48.50
32173;DHT22;18679;45.190;5.722;2023-02-12T00:13:16;7.20;48.50
32173;DHT22;18679;45.190;5.722;2023-02-12T00:16:21;7.20;48.50
32173;DHT22;18679;45.190;5.722;2023-02-12T00:19:22;7.20;48.50
32173;DHT22;18679;45.190;5.722;2023-02-12T00:22:24;7.20;48.40
32173;DHT22;18679;45.190;5.722;2023-02-12T00:25:25;7.20;48.30
32173;DHT22;18679;45.190;5.722;2023-02-12T00:28:26;7.20;48.00
32173;DHT22;18679;45.190;5.722;2023-02-12T00:31:30;7.20;47.70
32173;DHT22;18679;45.190;5.722;2023-02-12T00:34:31;7.20;47.50
32173;DHT22;18679;45.190;5.722;2023-02-12T00:37:32;7.20;47.70
32173;DHT22;18679;45.190;5.722;2023-02-12T00:40:33;7.20;47.90
32173;DHT22;18679;45.190;5.722;2023-02-12T00:43:34;7.10;48.20
32173;DHT22;18679;45.190;5.722;2023-02-12T00:46:36;7.10;48.50
32173;DHT22;18679;45.190;5.722;2023-02-12T00:49:37;7.10;48.80
32173;DHT22;18679;45.190;5.722;2023-02-12T00:52:38;7.00;48.90
32173;DHT22;18679;45.190;5.722;2023-02-12T00:55:39;7.00;48.90
32173;DHT22;18679;45.190;5.722;2023-02-12T00:58:40;7.00;49.00
32173;DHT22;18679;45.190;5.722;2023-02-12T01:01:41;6.90;49.10
32173;DHT22;18679;45.190;5.722;2023-02-12T01:04:42;6.80;49.30
32173;DHT22;18679;45.190;5.722;2023-02-12T01:07:43;6.70;49.50
32173;DHT22;18679;45.190;5.722;2023-02-12T01:10:44;6.70;49.60
32173;DHT22;18679;45.190;5.722;2023-02-12T01:13:45;6.60;49.70
32173;DHT22;18679;45.190;5.722;2023-02-12T01:16:46;6.60;49.90
32173;DHT22;18679;45.190;5.722;2023-02-12T01:19:47;6.50;50.00
32173;DHT22;18679;45.190;5.722;2023-02-12T01:22:50;6.50;50.20
32173;DHT22;18679;45.190;5.722;2023-02-12T01:25:52;6.40;50.30
32173;DHT22;18679;45.190;5.722;2023-02-12T01:28:57;6.40;50.40
32173;DHT22;18679;45.190;5.722;2023-02-12T01:31:58;6.30;50.60
32173;DHT22;18679;45.190;5.722;2023-02-12T01:35:00;6.30;50.70
32173;DHT22;18679;45.190;5.722;2023-02-12T01:38:02;6.30;50.70
32173;DHT22;18679;45.190;5.722;2023-02-12T01:41:12;6.30;50.80
32173;DHT22;18679;45.190;5.722;2023-02-12T01:47:16;6.30;51.40
32173;DHT22;18679;45.190;5.722;2023-02-12T01:50:18;6.20;50.90
32173;DHT22;18679;45.190;5.722;2023-02-12T01:53:23;6.20;50.90
32173;DHT22;18679;45.190;5.722;2023-02-12T01:56:25;6.20;51.00
32173;DHT22;18679;45.190;5.722;2023-02-12T01:59:26;6.10;51.10
32173;DHT22;18679;45.190;5.722;2023-02-12T02:02:30;6.10;51.10
32173;DHT22;18679;45.190;5.722;2023-02-12T02:06:08;6.10;51.00
32173;DHT22;18679;45.190;5.722;2023-02-12T02:09:03;6.10;51.00
32173;DHT22;18679;45.190;5.722;2023-02-12T02:12:06;6.10;50.90
32173;DHT22;18679;45.190;5.722;2023-02-12T02:15:27;6.20;50.90
32173;DHT22;18679;45.190;5.722;2023-02-12T02:18:41;6.20;50.90
32173;DHT22;18679;45.190;5.722;2023-02-12T02:31:42;6.10;51.00
32173;DHT22;18679;45.190;5.722;2023-02-12T02:35:03;6.00;51.10
32173;DHT22;18679;45.190;5.722;2023-02-12T02:38:06;5.90;51.30
32173;DHT22;18679;45.190;5.722;2023-02-12T02:44:36;5.80;51.30
32173;DHT22;18679;45.190;5.722;2023-02-12T02:47:47;5.80;51.30
32173;DHT22;18679;45.190;5.722;2023-02-12T02:51:28;5.80;51.30
32173;DHT22;18679;45.190;5.722;2023-02-12T02:54:26;5.90;51.50
32173;DHT22;18679;45.190;5.722;2023-02-12T02:57:36;5.80;51.60
32173;DHT22;18679;45.190;5.722;2023-02-12T03:01:02;5.80;51.70
32173;DHT22;18679;45.190;5.722;2023-02-12T03:04:07;5.70;51.80
32173;DHT22;18679;45.190;5.722;2023-02-12T03:07:16;5.60;51.90
32173;DHT22;18679;45.190;5.722;2023-02-12T03:10:26;5.60;52.10
32173;DHT22;18679;45.190;5.722;2023-02-12T03:13:51;5.60;52.20
32173;DHT22;18679;45.190;5.722;2023-02-12T03:17:03;5.50;52.30
32173;DHT22;18679;45.190;5.722;2023-02-12T03:26:54;5.40;52.60
32173;DHT22;18679;45.190;5.722;2023-02-12T03:29:58;5.40;52.60
32173;DHT22;18679;45.190;5.722;2023-02-12T03:37:17;5.40;52.50
32173;DHT22;18679;45.190;5.722;2023-02-12T03:40:29;5.50;52.60
32173;DHT22;18679;45.190;5.722;2023-02-12T03:43:49;5.40;52.50
32173;DHT22;18679;45.190;5.722;2023-02-12T03:47:08;5.50;52.60
32173;DHT22;18679;45.190;5.722;2023-02-12T03:50:25;5.50;52.50
32173;DHT22;18679;45.190;5.722;2023-02-12T03:53:28;5.50;52.40
32173;DHT22;18679;45.190;5.722;2023-02-12T03:56:36;5.50;52.50
32173;DHT22;18679;45.190;5.722;2023-02-12T03:59:38;5.50;52.50
32173;DHT22;18679;45.190;5.722;2023-02-12T04:02:41;5.40;52.50
32173;DHT22;18679;45.190;5.722;2023-02-12T04:05:42;5.30;52.60
32173;DHT22;18679;45.190;5.722;2023-02-12T04:08:43;5.30;52.70
32173;DHT22;18679;45.190;5.722;2023-02-12T04:18:45;5.30;53.00
32173;DHT22;18679;45.190;5.722;2023-02-12T04:25:25;5.20;53.10
32173;DHT22;18679;45.190;5.722;2023-02-12T04:28:51;5.20;53.30
32173;DHT22;18679;45.190;5.722;2023-02-12T04:32:14;5.10;53.40
32173;DHT22;18679;45.190;5.722;2023-02-12T04:35:22;5.10;53.50
32173;DHT22;18679;45.190;5.722;2023-02-12T04:38:46;5.10;53.60
32173;DHT22;18679;45.190;5.722;2023-02-12T04:41:48;5.10;53.60
32173;DHT22;18679;45.190;5.722;2023-02-12T04:44:49;5.10;53.70
32173;DHT22;18679;45.190;5.722;2023-02-12T04:47:50;5.10;53.70
32173;DHT22;18679;45.190;5.722;2023-02-12T04:50:51;5.10;53.70
32173;DHT22;18679;45.190;5.722;2023-02-12T04:53:52;5.10;53.70
32173;DHT22;18679;45.190;5.722;2023-02-12T04:56:53;5.10;53.70
32173;DHT22;18679;45.190;5.722;2023-02-12T04:59:55;5.10;53.60
32173;DHT22;18679;45.190;5.722;2023-02-12T05:02:56;5.10;53.50
32173;DHT22;18679;45.190;5.722;2023-02-12T05:06:02;5.20;53.50
32173;DHT22;18679;45.190;5.722;2023-02-12T05:09:04;5.20;53.50
32173;DHT22;18679;45.190;5.722;2023-02-12T05:12:06;5.20;53.50
32173;DHT22;18679;45.190;5.722;2023-02-12T05:15:07;5.20;53.50
32173;DHT22;18679;45.190;5.722;2023-02-12T05:18:09;5.20;53.40
32173;DHT22;18679;45.190;5.722;2023-02-12T05:21:10;5.20;53.50
32173;DHT22;18679;45.190;5.722;2023-02-12T05:24:11;5.20;53.40
32173;DHT22;18679;45.190;5.722;2023-02-12T05:27:12;5.20;53.50
32173;DHT22;18679;45.190;5.722;2023-02-12T05:30:13;5.20;53.60
32173;DHT22;18679;45.190;5.722;2023-02-12T05:33:14;5.10;53.60
32173;DHT22;18679;45.190;5.722;2023-02-12T05:36:21;5.10;53.60
32173;DHT22;18679;45.190;5.722;2023-02-12T05:39:22;5.10;53.70
32173;DHT22;18679;45.190;5.722;2023-02-12T05:42:23;5.00;53.80
32173;DHT22;18679;45.190;5.722;2023-02-12T05:45:24;5.00;53.90
32173;DHT22;18679;45.190;5.722;2023-02-12T05:48:28;4.90;54.00
32173;DHT22;18679;45.190;5.722;2023-02-12T05:51:29;4.90;54.10
32173;DHT22;18679;45.190;5.722;2023-02-12T05:54:31;4.90;54.10
32173;DHT22;18679;45.190;5.722;2023-02-12T05:57:32;4.90;54.10
32173;DHT22;18679;45.190;5.722;2023-02-12T06:00:33;4.90;54.10
32173;DHT22;18679;45.190;5.722;2023-02-12T06:03:35;4.90;54.10
32173;DHT22;18679;45.190;5.722;2023-02-12T06:06:36;4.90;54.10
32173;DHT22;18679;45.190;5.722;2023-02-12T06:09:37;4.90;54.20
32173;DHT22;18679;45.190;5.722;2023-02-12T06:12:38;4.80;54.20
32173;DHT22;18679;45.190;5.722;2023-02-12T06:15:39;4.80;54.30
32173;DHT22;18679;45.190;5.722;2023-02-12T06:18:40;4.80;54.40
32173;DHT22;18679;45.190;5.722;2023-02-12T06:21:41;4.80;54.40
32173;DHT22;18679;45.190;5.722;2023-02-12T06:24:42;4.80;54.50
32173;DHT22;18679;45.190;5.722;2023-02-12T06:27:43;4.70;54.50
32173;DHT22;18679;45.190;5.722;2023-02-12T06:30:44;4.70;54.50
32173;DHT22;18679;45.190;5.722;2023-02-12T06:33:45;4.60;54.60
32173;DHT22;18679;45.190;5.722;2023-02-12T06:36:47;4.60;54.80
32173;DHT22;18679;45.190;5.722;2023-02-12T06:39:48;4.60;54.80
32173;DHT22;18679;45.190;5.722;2023-02-12T06:42:49;4.50;54.90
32173;DHT22;18679;45.190;5.722;2023-02-12T06:45:50;4.50;55.10
32173;DHT22;18679;45.190;5.722;2023-02-12T06:48:55;4.40;55.10
32173;DHT22;18679;45.190;5.722;2023-02-12T06:51:56;4.40;55.20
32173;DHT22;18679;45.190;5.722;2023-02-12T06:54:57;4.40;55.30
32173;DHT22;18679;45.190;5.722;2023-02-12T06:57:58;4.50;55.30
32173;DHT22;18679;45.190;5.722;2023-02-12T07:01:17;4.50;55.40
32173;DHT22;18679;45.190;5.722;2023-02-12T07:04:19;4.60;55.30
32173;DHT22;18679;45.190;5.722;2023-02-12T07:07:21;4.60;55.20
32173;DHT22;18679;45.190;5.722;2023-02-12T07:10:22;4.60;55.20
32173;DHT22;18679;45.190;5.722;2023-02-12T07:13:23;4.50;55.20
32173;DHT22;18679;45.190;5.722;2023-02-12T07:16:24;4.50;55.30
32173;DHT22;18679;45.190;5.722;2023-02-12T07:19:26;4.50;55.40
32173;DHT22;18679;45.190;5.722;2023-02-12T07:22:27;4.50;55.40
32173;DHT22;18679;45.190;5.722;2023-02-12T07:25:28;4.60;55.40
32173;DHT22;18679;45.190;5.722;2023-02-12T07:28:29;4.60;55.30
32173;DHT22;18679;45.190;5.722;2023-02-12T07:31:33;4.70;55.20
32173;DHT22;18679;45.190;5.722;2023-02-12T07:34:34;4.70;55.10
32173;DHT22;18679;45.190;5.722;2023-02-12T07:37:35;4.80;55.00
32173;DHT22;18679;45.190;5.722;2023-02-12T07:40:36;4.80;54.80
32173;DHT22;18679;45.190;5.722;2023-02-12T07:43:41;4.90;54.70
32173;DHT22;18679;45.190;5.722;2023-02-12T07:46:48;4.80;54.60
32173;DHT22;18679;45.190;5.722;2023-02-12T07:49:49;4.90;54.50
32173;DHT22;18679;45.190;5.722;2023-02-12T07:52:50;4.90;54.60
32173;DHT22;18679;45.190;5.722;2023-02-12T07:55:51;4.90;54.60
32173;DHT22;18679;45.190;5.722;2023-02-12T07:58:52;5.00;54.70
32173;DHT22;18679;45.190;5.722;2023-02-12T08:01:53;5.00;54.60
32173;DHT22;18679;45.190;5.722;2023-02-12T08:04:55;5.00;54.50
32173;DHT22;18679;45.190;5.722;2023-02-12T08:07:57;5.10;54.60
32173;DHT22;18679;45.190;5.722;2023-02-12T08:10:58;5.20;54.40
32173;DHT22;18679;45.190;5.722;2023-02-12T08:13:59;5.40;54.30
32173;DHT22;18679;45.190;5.722;2023-02-12T08:17:00;5.40;54.00
32173;DHT22;18679;45.190;5.722;2023-02-12T08:20:01;5.50;53.90
32173;DHT22;18679;45.190;5.722;2023-02-12T08:23:02;5.60;53.80
32173;DHT22;18679;45.190;5.722;2023-02-12T08:29:18;5.80;53.20
32173;DHT22;18679;45.190;5.722;2023-02-12T08:32:19;5.80;53.10
32173;DHT22;18679;45.190;5.722;2023-02-12T08:35:20;5.90;53.60
32173;DHT22;18679;45.190;5.722;2023-02-12T08:38:21;6.10;52.90
32173;DHT22;18679;45.190;5.722;2023-02-12T08:41:24;6.00;52.70
32173;DHT22;18679;45.190;5.722;2023-02-12T08:44:26;6.10;52.70
32173;DHT22;18679;45.190;5.722;2023-02-12T08:47:27;6.20;52.40
32173;DHT22;18679;45.190;5.722;2023-02-12T08:50:28;6.20;52.30
32173;DHT22;18679;45.190;5.722;2023-02-12T08:53:29;6.30;52.10
32173;DHT22;18679;45.190;5.722;2023-02-12T08:56:31;6.40;52.10
32173;DHT22;18679;45.190;5.722;2023-02-12T08:59:33;6.50;52.00
32173;DHT22;18679;45.190;5.722;2023-02-12T09:02:33;6.60;51.70
32173;DHT22;18679;45.190;5.722;2023-02-12T09:05:38;6.80;51.40
32173;DHT22;18679;45.190;5.722;2023-02-12T09:08:40;6.80;51.10
32173;DHT22;18679;45.190;5.722;2023-02-12T09:11:41;6.90;51.00
32173;DHT22;18679;45.190;5.722;2023-02-12T09:14:42;7.00;50.80
32173;DHT22;18679;45.190;5.722;2023-02-12T09:17:43;7.10;50.40
32173;DHT22;18679;45.190;5.722;2023-02-12T09:20:44;7.20;50.00
32173;DHT22;18679;45.190;5.722;2023-02-12T09:23:46;7.20;50.00
32173;DHT22;18679;45.190;5.722;2023-02-12T09:26:47;7.20;49.90
32173;DHT22;18679;45.190;5.722;2023-02-12T09:29:48;7.30;49.70
32173;DHT22;18679;45.190;5.722;2023-02-12T09:32:49;7.30;49.80
32173;DHT22;18679;45.190;5.722;2023-02-12T09:35:50;7.40;49.70
32173;DHT22;18679;45.190;5.722;2023-02-12T09:38:51;7.40;49.20
32173;DHT22;18679;45.190;5.722;2023-02-12T09:42:15;7.50;49.00
32173;DHT22;18679;45.190;5.722;2023-02-12T09:45:22;7.50;49.00
32173;DHT22;18679;45.190;5.722;2023-02-12T09:51:50;7.80;48.60
32173;DHT22;18679;45.190;5.722;2023-02-12T09:54:54;7.80;48.40
32173;DHT22;18679;45.190;5.722;2023-02-12T09:57:55;8.00;48.20
32173;DHT22;18679;45.190;5.722;2023-02-12T10:00:57;8.10;47.90
32173;DHT22;18679;45.190;5.722;2023-02-12T10:03:58;8.20;47.80
32173;DHT22;18679;45.190;5.722;2023-02-12T10:07:21;8.30;47.50
32173;DHT22;18679;45.190;5.722;2023-02-12T10:10:53;8.40;47.00
32173;DHT22;18679;45.190;5.722;2023-02-12T10:17:41;8.60;46.70
32173;DHT22;18679;45.190;5.722;2023-02-12T10:27:42;8.90;44.80
32173;DHT22;18679;45.190;5.722;2023-02-12T10:30:56;9.20;44.30
32173;DHT22;18679;45.190;5.722;2023-02-12T10:33:58;9.60;43.70
32173;DHT22;18679;45.190;5.722;2023-02-12T10:37:12;9.90;43.10
32173;DHT22;18679;45.190;5.722;2023-02-12T10:40:25;10.20;42.70
32173;DHT22;18679;45.190;5.722;2023-02-12T10:43:30;10.60;42.40
32173;DHT22;18679;45.190;5.722;2023-02-12T10:46:31;10.90;42.00
32173;DHT22;18679;45.190;5.722;2023-02-12T10:49:32;11.10;41.70
32173;DHT22;18679;45.190;5.722;2023-02-12T10:52:42;11.30;41.90
32173;DHT22;18679;45.190;5.722;2023-02-12T10:55:44;11.50;40.70
32173;DHT22;18679;45.190;5.722;2023-02-12T10:58:56;11.80;40.00
32173;DHT22;18679;45.190;5.722;2023-02-12T11:01:59;12.00;39.30
32173;DHT22;18679;45.190;5.722;2023-02-12T11:05:21;12.10;38.90
32173;DHT22;18679;45.190;5.722;2023-02-12T11:08:35;12.20;39.30
32173;DHT22;18679;45.190;5.722;2023-02-12T11:11:37;12.60;39.20
32173;DHT22;18679;45.190;5.722;2023-02-12T11:14:38;12.90;38.60
32173;DHT22;18679;45.190;5.722;2023-02-12T11:17:42;13.10;37.30
32173;DHT22;18679;45.190;5.722;2023-02-12T11:27:24;13.90;36.70
32173;DHT22;18679;45.190;5.722;2023-02-12T11:30:25;14.20;36.20
32173;DHT22;18679;45.190;5.722;2023-02-12T11:33:29;14.70;35.80
32173;DHT22;18679;45.190;5.722;2023-02-12T11:36:34;15.10;34.30
32173;DHT22;18679;45.190;5.722;2023-02-12T11:39:37;15.40;33.30
32173;DHT22;18679;45.190;5.722;2023-02-12T11:42:39;15.60;32.90
32173;DHT22;18679;45.190;5.722;2023-02-12T11:45:48;16.00;32.70
32173;DHT22;18679;45.190;5.722;2023-02-12T11:48:53;16.40;31.70
32173;DHT22;18679;45.190;5.722;2023-02-12T11:51:56;16.70;30.50
32173;DHT22;18679;45.190;5.722;2023-02-12T11:55:22;17.00;30.70
32173;DHT22;18679;45.190;5.722;2023-02-12T11:58:24;17.50;30.50
32173;DHT22;18679;45.190;5.722;2023-02-12T12:01:29;18.10;30.00
32173;DHT22;18679;45.190;5.722;2023-02-12T12:04:34;18.60;28.80
32173;DHT22;18679;45.190;5.722;2023-02-12T12:07:42;18.70;28.20
32173;DHT22;18679;45.190;5.722;2023-02-12T12:10:54;18.90;28.40
32173;DHT22;18679;45.190;5.722;2023-02-12T12:17:24;19.50;27.50
32173;DHT22;18679;45.190;5.722;2023-02-12T12:20:57;19.80;27.20
32173;DHT22;18679;45.190;5.722;2023-02-12T12:24:14;19.30;27.30
32173;DHT22;18679;45.190;5.722;2023-02-12T12:27:23;18.80;27.60
32173;DHT22;18679;45.190;5.722;2023-02-12T12:34:12;17.90;28.60
32173;DHT22;18679;45.190;5.722;2023-02-12T12:43:52;17.30;29.00
32173;DHT22;18679;45.190;5.722;2023-02-12T13:13:55;15.00;31.50
32173;DHT22;18679;45.190;5.722;2023-02-12T13:27:03;14.50;32.50
32173;DHT22;18679;45.190;5.722;2023-02-12T13:30:29;14.50;32.60
32173;DHT22;18679;45.190;5.722;2023-02-12T13:33:50;14.50;32.80
32173;DHT22;18679;45.190;5.722;2023-02-12T13:36:52;14.50;32.70
32173;DHT22;18679;45.190;5.722;2023-02-12T13:39:57;14.50;33.00
32173;DHT22;18679;45.190;5.722;2023-02-12T13:47:19;14.50;33.10
32173;DHT22;18679;45.190;5.722;2023-02-12T13:50:30;14.50;32.90
32173;DHT22;18679;45.190;5.722;2023-02-12T13:57:11;14.50;32.80
32173;DHT22;18679;45.190;5.722;2023-02-12T14:07:22;14.60;33.10
32173;DHT22;18679;45.190;5.722;2023-02-12T14:10:39;14.70;32.90
32173;DHT22;18679;45.190;5.722;2023-02-12T14:13:51;14.70;32.90
32173;DHT22;18679;45.190;5.722;2023-02-12T14:16:53;14.70;33.00
32173;DHT22;18679;45.190;5.722;2023-02-12T14:23:19;14.80;33.00
32173;DHT22;18679;45.190;5.722;2023-02-12T14:26:24;14.80;33.10
32173;DHT22;18679;45.190;5.722;2023-02-12T14:29:25;14.90;33.10
32173;DHT22;18679;45.190;5.722;2023-02-12T14:35:47;14.90;33.10
32173;DHT22;18679;45.190;5.722;2023-02-12T14:38:57;14.90;33.20
32173;DHT22;18679;45.190;5.722;2023-02-12T14:45:33;14.90;33.30
32173;DHT22;18679;45.190;5.722;2023-02-12T14:52:00;14.90;33.50
32173;DHT22;18679;45.190;5.722;2023-02-12T14:55:17;14.90;33.50
32173;DHT22;18679;45.190;5.722;2023-02-12T14:58:21;14.90;33.50
32173;DHT22;18679;45.190;5.722;2023-02-12T15:01:32;14.90;33.60
32173;DHT22;18679;45.190;5.722;2023-02-12T15:04:36;14.90;33.60
32173;DHT22;18679;45.190;5.722;2023-02-12T15:07:49;14.90;33.60
32173;DHT22;18679;45.190;5.722;2023-02-12T15:11:05;14.90;33.70
32173;DHT22;18679;45.190;5.722;2023-02-12T15:14:18;14.90;33.80
32173;DHT22;18679;45.190;5.722;2023-02-12T15:17:23;14.90;33.80
32173;DHT22;18679;45.190;5.722;2023-02-12T15:20:47;14.90;33.80
32173;DHT22;18679;45.190;5.722;2023-02-12T15:24:06;14.90;33.90
32173;DHT22;18679;45.190;5.722;2023-02-12T15:27:14;14.90;33.90
32173;DHT22;18679;45.190;5.722;2023-02-12T15:30:18;14.90;33.80
32173;DHT22;18679;45.190;5.722;2023-02-12T15:33:26;14.90;33.60
32173;DHT22;18679;45.190;5.722;2023-02-12T15:36:30;14.80;33.50
32173;DHT22;18679;45.190;5.722;2023-02-12T15:39:41;14.80;33.30
32173;DHT22;18679;45.190;5.722;2023-02-12T15:43:03;14.80;33.30
32173;DHT22;18679;45.190;5.722;2023-02-12T15:46:05;14.80;33.40
32173;DHT22;18679;45.190;5.722;2023-02-12T15:49:19;14.80;33.30
32173;DHT22;18679;45.190;5.722;2023-02-12T15:52:33;14.70;33.10
32173;DHT22;18679;45.190;5.722;2023-02-12T15:55:40;14.70;33.00
32173;DHT22;18679;45.190;5.722;2023-02-12T16:01:58;14.70;33.20
32173;DHT22;18679;45.190;5.722;2023-02-12T16:05:03;14.70;33.30
32173;DHT22;18679;45.190;5.722;2023-02-12T16:08:05;14.70;33.40
32173;DHT22;18679;45.190;5.722;2023-02-12T16:11:07;14.70;33.40
32173;DHT22;18679;45.190;5.722;2023-02-12T16:17:34;14.50;33.40
32173;DHT22;18679;45.190;5.722;2023-02-12T16:20:35;14.50;33.50
32173;DHT22;18679;45.190;5.722;2023-02-12T16:23:36;14.50;33.60
32173;DHT22;18679;45.190;5.722;2023-02-12T16:26:38;14.40;33.60
32173;DHT22;18679;45.190;5.722;2023-02-12T16:29:48;14.30;33.70
32173;DHT22;18679;45.190;5.722;2023-02-12T16:32:49;14.30;33.80
32173;DHT22;18679;45.190;5.722;2023-02-12T16:36:00;14.20;33.90
32173;DHT22;18679;45.190;5.722;2023-02-12T16:39:05;14.10;34.00
32173;DHT22;18679;45.190;5.722;2023-02-12T16:42:15;14.10;34.20
32173;DHT22;18679;45.190;5.722;2023-02-12T16:48:35;14.00;34.40
32173;DHT22;18679;45.190;5.722;2023-02-12T16:51:36;13.90;34.50
32173;DHT22;18679;45.190;5.722;2023-02-12T16:54:37;13.80;34.50
32173;DHT22;18679;45.190;5.722;2023-02-12T16:57:38;13.80;34.70
32173;DHT22;18679;45.190;5.722;2023-02-12T17:00:40;13.70;34.70
32173;DHT22;18679;45.190;5.722;2023-02-12T17:03:41;13.60;34.80
32173;DHT22;18679;45.190;5.722;2023-02-12T17:06:43;13.60;35.10
32173;DHT22;18679;45.190;5.722;2023-02-12T17:09:44;13.50;35.20
32173;DHT22;18679;45.190;5.722;2023-02-12T17:15:56;13.40;35.50
32173;DHT22;18679;45.190;5.722;2023-02-12T17:18:58;13.30;35.60
32173;DHT22;18679;45.190;5.722;2023-02-12T17:21:59;13.20;35.70
32173;DHT22;18679;45.190;5.722;2023-02-12T17:25:00;13.20;35.90
32173;DHT22;18679;45.190;5.722;2023-02-12T17:28:01;13.10;36.10
32173;DHT22;18679;45.190;5.722;2023-02-12T17:31:02;13.10;36.30
32173;DHT22;18679;45.190;5.722;2023-02-12T17:34:06;13.00;36.40
32173;DHT22;18679;45.190;5.722;2023-02-12T17:37:07;12.90;36.60
32173;DHT22;18679;45.190;5.722;2023-02-12T17:40:08;12.90;36.80
32173;DHT22;18679;45.190;5.722;2023-02-12T17:43:11;12.80;36.80
32173;DHT22;18679;45.190;5.722;2023-02-12T17:46:19;12.70;36.80
32173;DHT22;18679;45.190;5.722;2023-02-12T17:49:20;12.70;36.80
32173;DHT22;18679;45.190;5.722;2023-02-12T17:52:22;12.70;36.90
32173;DHT22;18679;45.190;5.722;2023-02-12T17:55:23;12.60;37.00
32173;DHT22;18679;45.190;5.722;2023-02-12T17:58:24;12.60;37.10
32173;DHT22;18679;45.190;5.722;2023-02-12T18:01:25;12.50;37.10
32173;DHT22;18679;45.190;5.722;2023-02-12T18:04:26;12.50;37.20
32173;DHT22;18679;45.190;5.722;2023-02-12T18:07:27;12.50;37.30
32173;DHT22;18679;45.190;5.722;2023-02-12T18:10:28;12.40;37.30
32173;DHT22;18679;45.190;5.722;2023-02-12T18:13:30;12.40;37.40
32173;DHT22;18679;45.190;5.722;2023-02-12T18:16:33;12.30;37.50
32173;DHT22;18679;45.190;5.722;2023-02-12T18:19:34;12.30;37.50
32173;DHT22;18679;45.190;5.722;2023-02-12T18:22:35;12.20;37.50
32173;DHT22;18679;45.190;5.722;2023-02-12T18:25:41;12.20;37.60
32173;DHT22;18679;45.190;5.722;2023-02-12T18:28:42;12.10;37.70
32173;DHT22;18679;45.190;5.722;2023-02-12T18:31:43;12.10;37.70
32173;DHT22;18679;45.190;5.722;2023-02-12T18:34:48;12.00;37.70
32173;DHT22;18679;45.190;5.722;2023-02-12T18:37:50;12.00;37.70
32173;DHT22;18679;45.190;5.722;2023-02-12T18:40:51;11.90;37.70
32173;DHT22;18679;45.190;5.722;2023-02-12T18:43:52;11.80;37.70
32173;DHT22;18679;45.190;5.722;2023-02-12T18:46:54;11.80;37.80
32173;DHT22;18679;45.190;5.722;2023-02-12T18:50:00;12.30;38.10
32173;DHT22;18679;45.190;5.722;2023-02-12T18:53:01;11.70;37.90
32173;DHT22;18679;45.190;5.722;2023-02-12T18:56:03;11.70;37.90
32173;DHT22;18679;45.190;5.722;2023-02-12T18:59:05;11.60;38.00
32173;DHT22;18679;45.190;5.722;2023-02-12T19:02:06;11.60;38.20
32173;DHT22;18679;45.190;5.722;2023-02-12T19:05:07;11.50;38.20
32173;DHT22;18679;45.190;5.722;2023-02-12T19:08:08;11.40;38.20
32173;DHT22;18679;45.190;5.722;2023-02-12T19:11:10;11.40;38.40
32173;DHT22;18679;45.190;5.722;2023-02-12T19:14:13;11.30;38.40
32173;DHT22;18679;45.190;5.722;2023-02-12T19:17:14;11.30;38.50
32173;DHT22;18679;45.190;5.722;2023-02-12T19:20:15;11.30;38.70
32173;DHT22;18679;45.190;5.722;2023-02-12T19:23:16;11.30;38.90
32173;DHT22;18679;45.190;5.722;2023-02-12T19:26:17;11.20;38.90
32173;DHT22;18679;45.190;5.722;2023-02-12T19:29:18;11.10;38.80
32173;DHT22;18679;45.190;5.722;2023-02-12T19:32:20;11.10;38.90
32173;DHT22;18679;45.190;5.722;2023-02-12T19:35:21;11.00;39.00
32173;DHT22;18679;45.190;5.722;2023-02-12T19:38:22;11.00;39.10
32173;DHT22;18679;45.190;5.722;2023-02-12T19:41:25;11.00;39.20
32173;DHT22;18679;45.190;5.722;2023-02-12T19:44:26;10.90;39.20
32173;DHT22;18679;45.190;5.722;2023-02-12T19:47:27;10.90;39.30
32173;DHT22;18679;45.190;5.722;2023-02-12T19:50:28;10.80;39.30
32173;DHT22;18679;45.190;5.722;2023-02-12T19:53:30;10.80;39.50
32173;DHT22;18679;45.190;5.722;2023-02-12T19:56:35;10.70;39.60
32173;DHT22;18679;45.190;5.722;2023-02-12T19:59:36;10.70;39.80
32173;DHT22;18679;45.190;5.722;2023-02-12T20:02:37;10.60;39.80
32173;DHT22;18679;45.190;5.722;2023-02-12T20:05:39;10.60;39.90
32173;DHT22;18679;45.190;5.722;2023-02-12T20:08:51;10.60;40.10
32173;DHT22;18679;45.190;5.722;2023-02-12T20:11:53;10.50;40.20
32173;DHT22;18679;45.190;5.722;2023-02-12T20:14:54;10.40;40.30
32173;DHT22;18679;45.190;5.722;2023-02-12T20:17:55;10.40;40.40
32173;DHT22;18679;45.190;5.722;2023-02-12T20:21:00;10.40;40.50
32173;DHT22;18679;45.190;5.722;2023-02-12T20:24:04;10.30;40.60
32173;DHT22;18679;45.190;5.722;2023-02-12T20:27:05;10.30;40.80
32173;DHT22;18679;45.190;5.722;2023-02-12T20:30:07;10.30;41.00
32173;DHT22;18679;45.190;5.722;2023-02-12T20:33:09;10.20;41.00
32173;DHT22;18679;45.190;5.722;2023-02-12T20:36:11;10.20;41.20
32173;DHT22;18679;45.190;5.722;2023-02-12T20:39:15;10.20;41.30
32173;DHT22;18679;45.190;5.722;2023-02-12T20:42:16;10.20;41.30
32173;DHT22;18679;45.190;5.722;2023-02-12T20:45:17;10.20;41.40
32173;DHT22;18679;45.190;5.722;2023-02-12T20:48:19;10.20;42.00
32173;DHT22;18679;45.190;5.722;2023-02-12T20:51:24;10.10;41.40
32173;DHT22;18679;45.190;5.722;2023-02-12T20:54:26;10.10;41.40
32173;DHT22;18679;45.190;5.722;2023-02-12T20:57:27;10.10;41.40
32173;DHT22;18679;45.190;5.722;2023-02-12T21:00:28;10.10;41.50
32173;DHT22;18679;45.190;5.722;2023-02-12T21:03:29;10.10;41.50
32173;DHT22;18679;45.190;5.722;2023-02-12T21:06:31;10.10;41.50
32173;DHT22;18679;45.190;5.722;2023-02-12T21:09:32;10.00;41.40
32173;DHT22;18679;45.190;5.722;2023-02-12T21:12:33;10.00;41.50
32173;DHT22;18679;45.190;5.722;2023-02-12T21:15:34;10.00;41.50
32173;DHT22;18679;45.190;5.722;2023-02-12T21:18:35;10.00;41.50
32173;DHT22;18679;45.190;5.722;2023-02-12T21:21:39;10.00;41.40
32173;DHT22;18679;45.190;5.722;2023-02-12T21:24:40;10.00;41.40
32173;DHT22;18679;45.190;5.722;2023-02-12T21:27:41;10.00;41.40
32173;DHT22;18679;45.190;5.722;2023-02-12T21:30:43;9.90;41.40
32173;DHT22;18679;45.190;5.722;2023-02-12T21:33:46;9.90;41.50
32173;DHT22;18679;45.190;5.722;2023-02-12T21:36:48;9.90;41.50
32173;DHT22;18679;45.190;5.722;2023-02-12T21:39:50;9.90;41.50
32173;DHT22;18679;45.190;5.722;2023-02-12T21:42:50;9.90;41.70
32173;DHT22;18679;45.190;5.722;2023-02-12T21:45:51;9.80;41.90
32173;DHT22;18679;45.190;5.722;2023-02-12T21:48:53;9.80;42.20
32173;DHT22;18679;45.190;5.722;2023-02-12T21:51:57;9.70;42.30
32173;DHT22;18679;45.190;5.722;2023-02-12T21:54:58;9.70;42.60
32173;DHT22;18679;45.190;5.722;2023-02-12T21:57:59;9.60;42.80
32173;DHT22;18679;45.190;5.722;2023-02-12T22:04:09;9.60;43.00
32173;DHT22;18679;45.190;5.722;2023-02-12T22:07:10;9.50;43.10
32173;DHT22;18679;45.190;5.722;2023-02-12T22:10:11;9.40;43.30
32173;DHT22;18679;45.190;5.722;2023-02-12T22:13:12;9.40;43.70